createdAt,value
2023-04-24T00:02:12.118Z,5.00
2023-04-24T00:04:42.522Z,4.90
2023-04-24T00:07:09.936Z,4.90
2023-04-24T00:09:37.110Z,4.90
2023-04-24T00:12:07.261Z,4.90
2023-04-24T00:14:34.397Z,4.90
2023-04-24T00:17:01.533Z,4.90
2023-04-24T00:19:28.738Z,4.90
2023-04-24T00:21:56.016Z,4.90
2023-04-24T00:24:22.942Z,4.80
2023-04-24T00:26:50.092Z,4.90
2023-04-24T00:29:17.162Z,4.90
2023-04-24T00:31:44.332Z,4.90
2023-04-24T00:34:12.856Z,4.90
2023-04-24T00:36:39.804Z,4.90
2023-04-24T00:39:06.894Z,4.90
2023-04-24T00:41:33.988Z,4.90
2023-04-24T00:44:00.913Z,4.90
2023-04-24T00:46:27.973Z,4.90
2023-04-24T00:48:55.456Z,4.90
2023-04-24T00:51:22.518Z,4.90
2023-04-24T00:53:49.468Z,4.90
2023-04-24T00:56:16.893Z,4.90
2023-04-24T00:58:44.524Z,4.90
2023-04-24T01:01:12.875Z,4.90
2023-04-24T01:03:41.792Z,4.90
2023-04-24T01:06:10.568Z,4.90
2023-04-24T01:08:38.367Z,4.90
2023-04-24T01:11:06.216Z,4.90
2023-04-24T01:13:34.122Z,4.80
2023-04-24T01:16:02.104Z,4.80
2023-04-24T01:18:29.959Z,4.80
2023-04-24T01:21:04.761Z,4.80
2023-04-24T01:23:32.915Z,4.70
2023-04-24T01:26:00.059Z,4.70
2023-04-24T01:28:27.409Z,4.60
2023-04-24T01:30:54.725Z,4.60
2023-04-24T01:33:23.312Z,4.50
2023-04-24T01:35:50.514Z,4.40
2023-04-24T01:38:18.162Z,4.30
2023-04-24T01:40:45.601Z,4.10
2023-04-24T01:43:14.315Z,3.90
2023-04-24T01:45:41.648Z,3.90
2023-04-24T01:48:08.950Z,3.80
2023-04-24T01:50:36.188Z,3.80
2023-04-24T01:53:03.182Z,3.80
2023-04-24T01:55:30.586Z,3.80
2023-04-24T01:57:58.139Z,3.80
2023-04-24T02:00:26.071Z,3.80
2023-04-24T02:02:53.280Z,3.80
2023-04-24T02:05:20.546Z,3.90
2023-04-24T02:07:47.518Z,3.90
2023-04-24T02:10:14.533Z,3.90
2023-04-24T02:12:41.466Z,4.00
2023-04-24T02:15:08.750Z,4.10
2023-04-24T02:17:36.285Z,4.10
2023-04-24T02:20:03.684Z,4.10
2023-04-24T02:22:30.676Z,4.10
2023-04-24T02:24:57.756Z,4.20
2023-04-24T02:27:24.940Z,4.10
2023-04-24T02:29:52.272Z,4.10
2023-04-24T02:32:19.231Z,4.10
2023-04-24T02:34:46.168Z,4.00
2023-04-24T02:37:13.274Z,4.00
2023-04-24T02:39:40.675Z,4.00
2023-04-24T02:42:09.133Z,3.90
2023-04-24T02:44:36.157Z,3.90
2023-04-24T02:47:03.080Z,3.90
2023-04-24T02:49:30.233Z,3.90
2023-04-24T02:51:57.134Z,3.90
2023-04-24T02:54:24.041Z,3.90
2023-04-24T02:56:51.539Z,3.90
2023-04-24T02:59:18.451Z,4.00
2023-04-24T03:01:45.532Z,4.10
2023-04-24T03:04:12.883Z,4.10
2023-04-24T03:06:40.190Z,4.10
2023-04-24T03:09:07.252Z,4.20
2023-04-24T03:11:34.342Z,4.20
2023-04-24T03:14:01.272Z,4.20
2023-04-24T03:16:28.390Z,4.20
2023-04-24T03:18:55.345Z,4.20
2023-04-24T03:21:22.330Z,4.30
2023-04-24T03:23:49.426Z,4.30
2023-04-24T03:26:16.341Z,4.30
2023-04-24T03:28:43.541Z,4.30
2023-04-24T03:31:10.517Z,4.30
2023-04-24T03:33:37.680Z,4.30
2023-04-24T03:36:06.275Z,4.40
2023-04-24T03:38:33.218Z,4.40
2023-04-24T03:41:00.485Z,4.40
2023-04-24T03:43:28.430Z,4.40
2023-04-24T03:45:55.454Z,4.40
2023-04-24T03:48:22.661Z,4.40
2023-04-24T03:50:49.654Z,4.30
2023-04-24T03:53:16.828Z,4.30
2023-04-24T03:55:44.032Z,4.20
2023-04-24T03:58:12.642Z,4.10
2023-04-24T04:00:41.403Z,4.10
2023-04-24T04:03:08.673Z,4.00
2023-04-24T04:05:35.784Z,4.00
2023-04-24T04:08:03.095Z,4.00
2023-04-24T04:10:30.056Z,3.90
2023-04-24T04:12:57.055Z,3.80
2023-04-24T04:15:23.983Z,3.90
2023-04-24T04:17:51.035Z,3.90
2023-04-24T04:20:18.133Z,3.80
2023-04-24T04:22:45.139Z,3.80
2023-04-24T04:25:12.662Z,3.80
2023-04-24T04:27:40.102Z,3.70
2023-04-24T04:30:07.688Z,3.70
2023-04-24T04:32:36.017Z,3.70
2023-04-24T04:35:06.397Z,3.70
2023-04-24T04:37:34.819Z,3.70
2023-04-24T04:40:02.865Z,3.70
2023-04-24T04:42:30.302Z,3.70
2023-04-24T04:44:58.563Z,3.70
2023-04-24T04:47:25.946Z,3.70
2023-04-24T04:49:53.114Z,3.70
2023-04-24T04:52:20.525Z,3.70
2023-04-24T04:54:47.556Z,3.70
2023-04-24T04:57:14.473Z,3.70
2023-04-24T04:59:42.447Z,3.70
2023-04-24T05:02:10.312Z,3.70
2023-04-24T05:04:37.471Z,3.80
2023-04-24T05:07:04.786Z,3.80
2023-04-24T05:09:31.783Z,3.80
2023-04-24T05:11:58.749Z,3.80
2023-04-24T05:14:25.911Z,3.80
2023-04-24T05:16:53.110Z,3.70
2023-04-24T05:19:20.310Z,3.70
2023-04-24T05:21:47.434Z,3.70
2023-04-24T05:24:14.587Z,3.80
2023-04-24T05:26:41.762Z,3.80
2023-04-24T05:29:08.893Z,3.80
2023-04-24T05:31:36.001Z,3.80
2023-04-24T05:34:03.138Z,3.80
2023-04-24T05:36:30.283Z,3.80
2023-04-24T05:38:57.626Z,3.70
2023-04-24T05:41:24.614Z,3.70
2023-04-24T05:43:52.436Z,3.60
2023-04-24T05:46:19.467Z,3.60
2023-04-24T05:48:46.953Z,3.60
2023-04-24T05:51:14.134Z,3.60
2023-04-24T05:53:41.511Z,3.70
2023-04-24T05:56:08.497Z,3.70
2023-04-24T05:58:35.677Z,3.80
2023-04-24T06:01:03.546Z,3.90
2023-04-24T06:03:30.669Z,3.90
2023-04-24T06:05:57.651Z,4.00
2023-04-24T06:08:24.625Z,4.00
2023-04-24T06:10:51.624Z,4.20
2023-04-24T06:13:18.617Z,4.20
2023-04-24T06:15:45.673Z,4.30
2023-04-24T06:18:13.676Z,4.30
2023-04-24T06:20:41.096Z,4.40
2023-04-24T06:23:08.262Z,4.40
2023-04-24T06:25:35.636Z,4.30
2023-04-24T06:28:03.989Z,4.30
2023-04-24T06:30:31.253Z,4.20
2023-04-24T06:33:02.988Z,4.30
2023-04-24T06:35:33.257Z,4.30
2023-04-24T06:38:00.364Z,4.40
2023-04-24T06:40:27.275Z,4.40
2023-04-24T06:42:54.299Z,4.50
2023-04-24T06:45:21.378Z,4.50
2023-04-24T06:47:48.409Z,4.60
2023-04-24T06:50:15.470Z,4.60
2023-04-24T06:52:42.492Z,4.60
2023-04-24T06:55:09.869Z,4.50
2023-04-24T06:57:36.939Z,4.50
2023-04-24T07:00:06.460Z,4.40
2023-04-24T07:02:33.673Z,4.30
2023-04-24T07:05:00.888Z,4.40
2023-04-24T07:07:28.732Z,4.40
2023-04-24T07:09:57.676Z,4.50
2023-04-24T07:12:24.708Z,4.50
2023-04-24T07:14:52.217Z,4.60
2023-04-24T07:17:19.247Z,4.70
2023-04-24T07:19:46.576Z,4.80
2023-04-24T07:22:17.968Z,4.90
2023-04-24T07:24:45.701Z,4.90
2023-04-24T07:27:13.373Z,4.90
2023-04-24T07:29:41.934Z,5.20
2023-04-24T07:32:09.177Z,5.50
2023-04-24T07:34:36.480Z,5.50
2023-04-24T07:37:04.036Z,5.60
2023-04-24T07:39:31.214Z,5.60
2023-04-24T07:42:00.174Z,5.50
2023-04-24T07:44:27.332Z,5.30
2023-04-24T07:46:54.566Z,5.10
2023-04-24T07:49:21.856Z,5.30
2023-04-24T07:51:48.880Z,5.80
2023-04-24T07:54:16.407Z,6.10
2023-04-24T07:56:44.551Z,6.00
2023-04-24T07:59:11.958Z,6.00
2023-04-24T08:01:39.417Z,5.90
2023-04-24T08:04:07.397Z,5.80
2023-04-24T08:06:34.880Z,5.60
2023-04-24T08:09:01.853Z,5.50
2023-04-24T08:11:28.885Z,5.80
2023-04-24T08:13:56.314Z,6.50
2023-04-24T08:16:25.126Z,7.10
2023-04-24T08:18:52.711Z,7.60
2023-04-24T08:21:20.107Z,8.00
2023-04-24T08:23:47.365Z,8.50
2023-04-24T08:26:15.039Z,8.90
2023-04-24T08:28:41.973Z,9.20
2023-04-24T08:31:08.985Z,9.50
2023-04-24T08:33:36.184Z,9.50
2023-04-24T08:36:07.203Z,9.20
2023-04-24T08:38:34.909Z,9.30
2023-04-24T08:41:03.178Z,9.40
2023-04-24T08:43:30.956Z,9.30
2023-04-24T08:45:58.860Z,9.40
2023-04-24T08:48:31.659Z,9.30
2023-04-24T08:51:00.171Z,9.10
2023-04-24T08:53:28.088Z,8.70
2023-04-24T08:55:56.963Z,8.40
2023-04-24T08:58:27.069Z,8.70
2023-04-24T09:00:56.893Z,8.80
2023-04-24T09:03:24.269Z,8.40
2023-04-24T09:05:51.812Z,7.90
2023-04-24T09:08:20.061Z,7.30
2023-04-24T09:10:49.894Z,6.70
2023-04-24T09:13:19.706Z,6.30
2023-04-24T09:15:46.884Z,6.10
2023-04-24T09:18:13.966Z,5.90
2023-04-24T09:21:03.548Z,5.80
2023-04-24T09:23:31.683Z,5.70
2023-04-24T09:26:02.147Z,5.70
2023-04-24T09:28:32.387Z,5.60
2023-04-24T09:31:22.585Z,5.60
2023-04-24T09:34:08.435Z,5.60
2023-04-24T09:36:44.777Z,5.60
2023-04-24T09:39:17.091Z,5.80
2023-04-24T09:41:48.214Z,5.90
2023-04-24T09:44:17.818Z,6.10
2023-04-24T09:46:50.946Z,6.20
2023-04-24T09:49:26.564Z,6.20
2023-04-24T09:52:02.870Z,6.20
2023-04-24T09:54:31.118Z,6.10
2023-04-24T09:56:58.587Z,6.20
2023-04-24T09:59:25.652Z,6.20
2023-04-24T10:01:53.490Z,6.30
2023-04-24T10:04:25.755Z,6.40
2023-04-24T10:06:55.859Z,6.50
2023-04-24T10:09:27.706Z,6.50
2023-04-24T10:11:56.144Z,6.70
2023-04-24T10:14:25.138Z,7.10
2023-04-24T10:16:55.898Z,7.50
2023-04-24T10:19:25.975Z,7.70
2023-04-24T10:21:53.636Z,7.80
2023-04-24T10:24:22.311Z,7.60
2023-04-24T10:26:49.929Z,7.50
2023-04-24T10:29:19.459Z,7.40
2023-04-24T10:31:47.229Z,7.40
2023-04-24T10:34:17.015Z,7.40
2023-04-24T10:36:50.007Z,7.70
2023-04-24T10:39:18.124Z,7.80
2023-04-24T10:41:46.049Z,8.10
2023-04-24T10:44:16.128Z,8.20
2023-04-24T10:46:51.085Z,8.40
2023-04-24T10:49:18.337Z,8.60
2023-04-24T10:52:00.948Z,8.70
2023-04-24T10:54:42.867Z,8.80
2023-04-24T10:57:21.994Z,8.60
2023-04-24T10:59:53.507Z,8.50
2023-04-24T11:02:38.035Z,8.90
2023-04-24T11:05:05.767Z,9.40
2023-04-24T11:08:15.068Z,10.10
2023-04-24T11:10:49.080Z,10.40
2023-04-24T11:13:18.033Z,10.60
2023-04-24T11:15:45.309Z,10.10
2023-04-24T11:18:18.248Z,10.40
2023-04-24T11:20:46.364Z,10.60
2023-04-24T11:23:15.235Z,10.90
2023-04-24T11:25:43.866Z,11.30
2023-04-24T11:28:17.400Z,11.90
2023-04-24T11:30:44.365Z,12.00
2023-04-24T11:33:11.346Z,11.40
2023-04-24T11:35:41.725Z,10.70
2023-04-24T11:38:23.207Z,10.00
2023-04-24T11:40:51.895Z,9.80
2023-04-24T11:43:21.170Z,9.50
2023-04-24T11:45:51.784Z,9.00
2023-04-24T11:48:23.433Z,8.80
2023-04-24T11:50:51.579Z,8.70
2023-04-24T11:53:22.803Z,8.40
2023-04-24T11:55:50.040Z,8.20
2023-04-24T11:58:23.055Z,8.10
2023-04-24T12:00:58.451Z,8.20
2023-04-24T12:03:25.777Z,8.20
2023-04-24T12:05:53.221Z,8.30
2023-04-24T12:08:30.224Z,8.40
2023-04-24T12:10:57.564Z,8.30
2023-04-24T12:13:27.037Z,7.60
2023-04-24T12:15:54.660Z,6.80
2023-04-24T12:18:25.173Z,6.20
2023-04-24T12:20:52.137Z,5.80
2023-04-24T12:23:39.283Z,5.70
2023-04-24T12:26:06.833Z,6.10
2023-04-24T12:28:38.153Z,6.40
2023-04-24T12:31:05.812Z,6.60
2023-04-24T12:33:37.569Z,6.90
2023-04-24T12:36:06.609Z,7.20
2023-04-24T12:38:41.382Z,7.20
2023-04-24T12:41:10.957Z,7.10
2023-04-24T12:43:38.769Z,7.10
2023-04-24T12:46:06.736Z,7.00
2023-04-24T12:48:33.984Z,6.90
2023-04-24T12:51:04.320Z,6.90
2023-04-24T12:53:32.351Z,7.00
2023-04-24T12:55:59.918Z,7.10
2023-04-24T12:58:27.174Z,7.30
2023-04-24T13:00:54.450Z,7.40
2023-04-24T13:03:21.719Z,7.50
2023-04-24T13:05:49.351Z,7.50
2023-04-24T13:08:16.318Z,7.50
2023-04-24T13:10:43.347Z,7.70
2023-04-24T13:13:10.655Z,7.90
2023-04-24T13:15:37.917Z,8.30
2023-04-24T13:18:05.381Z,8.40
2023-04-24T13:20:32.644Z,8.40
2023-04-24T13:22:59.771Z,8.30
2023-04-24T13:25:27.639Z,8.10
2023-04-24T13:27:54.640Z,7.80
2023-04-24T13:30:21.645Z,7.50
2023-04-24T13:32:48.757Z,7.50
2023-04-24T13:35:15.924Z,7.70
2023-04-24T13:37:42.857Z,7.60
2023-04-24T13:40:10.666Z,7.60
2023-04-24T13:42:37.861Z,7.90
2023-04-24T13:45:21.257Z,8.40
2023-04-24T13:47:52.340Z,8.60
2023-04-24T13:50:19.977Z,9.20
2023-04-24T13:52:46.937Z,9.70
2023-04-24T13:55:13.962Z,10.40
2023-04-24T13:57:41.370Z,10.80
2023-04-24T14:00:11.523Z,10.60
2023-04-24T14:02:39.000Z,10.30
2023-04-24T14:05:07.046Z,10.70
2023-04-24T14:07:34.124Z,11.00
2023-04-24T14:10:01.135Z,10.50
2023-04-24T14:12:28.332Z,9.80
2023-04-24T14:14:56.125Z,9.30
2023-04-24T14:17:23.230Z,9.30
2023-04-24T14:19:50.235Z,9.50
2023-04-24T14:22:17.752Z,9.50
2023-04-24T14:24:44.857Z,9.70
2023-04-24T14:27:11.869Z,9.60
2023-04-24T14:29:38.795Z,9.40
2023-04-24T14:32:05.997Z,9.30
2023-04-24T14:34:33.012Z,9.70
2023-04-24T14:37:00.142Z,10.30
2023-04-24T14:39:27.217Z,10.80
2023-04-24T14:41:54.131Z,10.90
2023-04-24T14:44:21.096Z,10.90
2023-04-24T14:46:50.321Z,11.10
2023-04-24T14:49:17.370Z,10.90
2023-04-24T14:51:44.632Z,10.30
2023-04-24T14:54:11.724Z,10.10
2023-04-24T14:56:40.589Z,10.00
2023-04-24T14:59:08.350Z,9.80
2023-04-24T15:01:35.539Z,9.50
2023-04-24T15:04:02.832Z,9.10
2023-04-24T15:06:32.786Z,8.90
2023-04-24T15:08:59.907Z,8.50
2023-04-24T15:11:27.223Z,8.20
2023-04-24T15:13:54.204Z,8.00
2023-04-24T15:16:21.627Z,8.10
2023-04-24T15:18:48.784Z,8.50
2023-04-24T15:21:15.770Z,8.90
2023-04-24T15:23:42.739Z,9.40
2023-04-24T15:26:09.905Z,9.70
2023-04-24T15:28:37.082Z,9.90
2023-04-24T15:31:04.218Z,10.20
2023-04-24T15:33:31.238Z,10.20
2023-04-24T15:35:58.184Z,9.80
2023-04-24T15:38:25.167Z,9.90
2023-04-24T15:40:52.131Z,9.80
2023-04-24T15:43:19.092Z,9.50
2023-04-24T15:45:46.171Z,9.30
2023-04-24T15:48:13.432Z,9.00
2023-04-24T15:50:40.501Z,8.80
2023-04-24T15:53:07.495Z,8.60
2023-04-24T15:55:35.140Z,8.40
2023-04-24T15:58:02.255Z,8.20
2023-04-24T16:00:34.278Z,8.20
2023-04-24T16:03:02.201Z,8.40
2023-04-24T16:05:29.553Z,8.80
2023-04-24T16:07:56.923Z,8.90
2023-04-24T16:10:23.885Z,9.00
2023-04-24T16:12:51.857Z,8.90
2023-04-24T16:15:18.976Z,8.80
2023-04-24T16:17:46.399Z,8.60
2023-04-24T16:20:14.447Z,8.50
2023-04-24T16:22:41.825Z,8.70
2023-04-24T16:25:09.872Z,8.90
2023-04-24T16:27:37.565Z,8.80
2023-04-24T16:30:05.732Z,8.60
2023-04-24T16:32:32.751Z,8.60
2023-04-24T16:34:59.702Z,8.80
2023-04-24T16:37:26.878Z,8.70
2023-04-24T16:39:55.232Z,8.60
2023-04-24T16:42:22.515Z,8.70
2023-04-24T16:44:49.672Z,8.70
2023-04-24T16:47:17.380Z,8.50
2023-04-24T16:49:44.373Z,8.20
2023-04-24T16:52:12.164Z,7.90
2023-04-24T16:54:39.171Z,7.50
2023-04-24T16:57:08.239Z,7.20
2023-04-24T16:59:35.288Z,6.90
2023-04-24T17:02:02.524Z,6.70
2023-04-24T17:04:31.036Z,6.50
2023-04-24T17:06:58.139Z,6.40
2023-04-24T17:09:25.343Z,6.40
2023-04-24T17:11:52.241Z,6.30
2023-04-24T17:14:19.293Z,6.20
2023-04-24T17:16:46.553Z,6.10
2023-04-24T17:19:13.600Z,6.00
2023-04-24T17:21:40.715Z,5.90
2023-04-24T17:24:07.963Z,6.00
2023-04-24T17:26:35.122Z,6.00
2023-04-24T17:29:02.481Z,5.90
2023-04-24T17:31:29.607Z,5.80
2023-04-24T17:33:56.822Z,5.70
2023-04-24T17:36:23.978Z,5.60
2023-04-24T17:38:51.102Z,5.60
2023-04-24T17:41:18.321Z,5.50
2023-04-24T17:43:45.971Z,5.50
2023-04-24T17:46:13.408Z,5.50
2023-04-24T17:48:40.889Z,5.50
2023-04-24T17:51:08.346Z,5.50
2023-04-24T17:53:36.688Z,5.50
2023-04-24T17:56:04.125Z,5.60
2023-04-24T17:58:32.812Z,5.60
2023-04-24T18:00:59.960Z,5.50
2023-04-24T18:03:27.230Z,5.50
2023-04-24T18:05:54.418Z,5.50
2023-04-24T18:08:21.445Z,5.50
2023-04-24T18:10:48.602Z,5.30
2023-04-24T18:13:15.595Z,5.30
2023-04-24T18:15:43.595Z,5.20
2023-04-24T18:18:11.734Z,5.00
2023-04-24T18:20:39.475Z,4.90
2023-04-24T18:23:06.698Z,4.80
2023-04-24T18:25:33.850Z,4.70
2023-04-24T18:28:00.933Z,4.70
2023-04-24T18:30:31.063Z,4.70
2023-04-24T18:32:58.641Z,4.80
2023-04-24T18:35:25.905Z,4.80
2023-04-24T18:37:53.295Z,4.80
2023-04-24T18:40:20.424Z,4.70
2023-04-24T18:42:47.722Z,4.80
2023-04-24T18:45:15.426Z,4.80
2023-04-24T18:47:43.371Z,4.90
2023-04-24T18:50:11.065Z,5.00
2023-04-24T18:52:38.165Z,5.00
2023-04-24T18:55:06.853Z,4.90
2023-04-24T18:57:34.054Z,4.70
2023-04-24T19:00:01.100Z,4.50
2023-04-24T19:02:28.568Z,4.20
2023-04-24T19:04:55.749Z,4.30
2023-04-24T19:07:22.985Z,4.30
2023-04-24T19:09:49.939Z,4.30
2023-04-24T19:12:16.975Z,4.40
2023-04-24T19:14:43.895Z,4.30
2023-04-24T19:17:11.540Z,4.20
2023-04-24T19:19:38.572Z,4.10
2023-04-24T19:22:07.777Z,4.10
2023-04-24T19:24:34.941Z,4.00
2023-04-24T19:27:02.509Z,3.90
2023-04-24T19:29:29.577Z,3.90
2023-04-24T19:31:58.696Z,3.90
2023-04-24T19:34:26.473Z,3.80
2023-04-24T19:36:53.597Z,3.80
2023-04-24T19:39:20.653Z,3.80
2023-04-24T19:41:47.751Z,3.80
2023-04-24T19:44:15.723Z,3.80
2023-04-24T19:46:43.360Z,3.70
2023-04-24T19:49:10.771Z,3.70
2023-04-24T19:51:38.982Z,3.70
2023-04-24T19:54:06.437Z,3.70
2023-04-24T19:56:34.584Z,3.80
2023-04-24T19:59:01.680Z,3.80
2023-04-24T20:01:28.907Z,3.90
2023-04-24T20:03:56.539Z,4.00
2023-04-24T20:06:23.722Z,4.00
2023-04-24T20:08:50.986Z,4.00
2023-04-24T20:11:18.223Z,4.00
2023-04-24T20:13:45.963Z,4.00
2023-04-24T20:16:13.187Z,3.90
2023-04-24T20:18:40.530Z,3.80
2023-04-24T20:21:08.387Z,3.70
2023-04-24T20:23:35.893Z,3.70
2023-04-24T20:26:05.136Z,3.50
2023-04-24T20:28:32.219Z,3.50
2023-04-24T20:30:59.579Z,3.40
2023-04-24T20:33:28.146Z,3.40
2023-04-24T20:35:55.731Z,3.40
2023-04-24T20:38:23.193Z,3.40
2023-04-24T20:43:22.833Z,3.30
2023-04-24T20:45:50.417Z,3.20
2023-04-24T20:48:17.402Z,3.00
2023-04-24T20:50:44.670Z,2.90
2023-04-24T20:53:11.755Z,2.90
2023-04-24T20:55:38.790Z,2.80
2023-04-24T20:58:06.174Z,2.70
2023-04-24T21:00:33.165Z,2.70
2023-04-24T21:03:00.312Z,2.70
2023-04-24T21:05:27.423Z,2.70
2023-04-24T21:07:56.015Z,2.70
2023-04-24T21:10:25.186Z,2.80
2023-04-24T21:12:52.868Z,2.80
2023-04-24T21:15:19.811Z,2.70
2023-04-24T21:17:46.984Z,2.70
2023-04-24T21:20:14.363Z,2.60
2023-04-24T21:22:41.507Z,2.50
2023-04-24T21:25:08.884Z,2.50
2023-04-24T21:27:36.912Z,2.50
2023-04-24T21:30:06.006Z,2.50
2023-04-24T21:32:33.237Z,2.50
2023-04-24T21:35:00.284Z,2.40
2023-04-24T21:37:27.721Z,2.30
2023-04-24T21:39:55.333Z,2.30
2023-04-24T21:42:22.315Z,2.20
2023-04-24T21:44:49.248Z,2.20
2023-04-24T21:47:16.373Z,2.20
2023-04-24T21:49:43.539Z,2.20
2023-04-24T21:52:10.456Z,2.30
2023-04-24T21:54:37.412Z,2.40
2023-04-24T21:57:04.632Z,2.40
2023-04-24T21:59:31.826Z,2.60
2023-04-24T22:01:59.075Z,2.60
2023-04-24T22:04:26.759Z,2.70
2023-04-24T22:06:54.465Z,2.70
2023-04-24T22:09:21.726Z,2.80
2023-04-24T22:11:48.986Z,2.90
2023-04-24T22:14:15.961Z,3.00
2023-04-24T22:16:43.324Z,3.10
2023-04-24T22:19:10.803Z,3.10
2023-04-24T22:21:39.159Z,3.10
2023-04-24T22:24:06.905Z,3.10
2023-04-24T22:26:34.194Z,3.20
2023-04-24T22:29:01.413Z,3.20
2023-04-24T22:31:28.639Z,3.10
2023-04-24T22:33:56.207Z,3.10
2023-04-24T22:36:23.120Z,3.00
2023-04-24T22:38:50.306Z,3.00
2023-04-24T22:41:17.244Z,2.90
2023-04-24T22:43:44.918Z,3.00
2023-04-24T22:46:11.916Z,3.00
2023-04-24T22:48:38.965Z,3.10
2023-04-24T22:51:06.718Z,3.10
2023-04-24T22:53:33.723Z,3.20
2023-04-24T22:56:00.804Z,3.10
2023-04-24T22:58:27.740Z,3.10
2023-04-24T23:00:54.725Z,3.10
2023-04-24T23:03:22.037Z,3.00
2023-04-24T23:05:49.209Z,2.90
2023-04-24T23:08:16.189Z,2.90
2023-04-24T23:10:43.475Z,2.90
2023-04-24T23:13:10.400Z,3.00
2023-04-24T23:15:39.572Z,3.10
2023-04-24T23:18:06.665Z,3.10
2023-04-24T23:20:33.639Z,3.00
2023-04-24T23:23:01.080Z,3.00
2023-04-24T23:25:28.057Z,2.90
2023-04-24T23:27:54.965Z,2.90
2023-04-24T23:30:22.109Z,2.90
2023-04-24T23:32:49.137Z,2.80
2023-04-24T23:35:16.225Z,2.80
2023-04-24T23:37:43.152Z,2.80
2023-04-24T23:40:10.686Z,2.50
2023-04-24T23:42:38.286Z,2.20
2023-04-24T23:45:05.800Z,2.10
2023-04-24T23:47:32.964Z,2.10
2023-04-24T23:50:00.182Z,2.00
2023-04-24T23:52:27.378Z,2.00
2023-04-24T23:54:54.305Z,2.00
2023-04-24T23:57:21.854Z,2.00
2023-04-24T23:59:48.812Z,2.00
